sensor_id;sensor_type;location;lat;lon;timestamp;P1;durP1;ratioP1;P2;durP2;ratioP2
25946;SDS011;13745;51.470;9.894;2024-01-10T00:01:14;44.45;;;17.02;;
25946;SDS011;13745;51.470;9.894;2024-01-10T00:03:59;42.40;;;16.67;;
25946;SDS011;13745;51.470;9.894;2024-01-10T00:06:45;42.33;;;16.83;;
25946;SDS011;13745;51.470;9.894;2024-01-10T00:09:32;36.25;;;15.43;;
25946;SDS011;13745;51.470;9.894;2024-01-10T00:12:17;40.28;;;15.90;;
25946;SDS011;13745;51.470;9.894;2024-01-10T00:15:02;46.95;;;17.83;;
25946;SDS011;13745;51.470;9.894;2024-01-10T00:17:48;40.25;;;16.30;;
25946;SDS011;13745;51.470;9.894;2024-01-10T00:20:33;48.70;;;17.48;;
25946;SDS011;13745;51.470;9.894;2024-01-10T00:23:18;45.85;;;17.92;;
25946;SDS011;13745;51.470;9.894;2024-01-10T00:26:04;43.08;;;16.90;;
25946;SDS011;13745;51.470;9.894;2024-01-10T00:28:50;47.55;;;18.50;;
25946;SDS011;13745;51.470;9.894;2024-01-10T00:31:35;41.85;;;15.75;;
25946;SDS011;13745;51.470;9.894;2024-01-10T00:34:20;43.90;;;16.70;;
25946;SDS011;13745;51.470;9.894;2024-01-10T00:37:05;44.35;;;17.63;;
25946;SDS011;13745;51.470;9.894;2024-01-10T00:39:50;49.53;;;17.33;;
25946;SDS011;13745;51.470;9.894;2024-01-10T00:42:37;44.55;;;17.00;;
25946;SDS011;13745;51.470;9.894;2024-01-10T00:45:21;45.03;;;17.48;;
25946;SDS011;13745;51.470;9.894;2024-01-10T00:48:07;43.13;;;17.83;;
25946;SDS011;13745;51.470;9.894;2024-01-10T00:50:52;40.38;;;17.55;;
25946;SDS011;13745;51.470;9.894;2024-01-10T00:53:37;49.92;;;17.60;;
25946;SDS011;13745;51.470;9.894;2024-01-10T00:56:23;48.58;;;17.95;;
25946;SDS011;13745;51.470;9.894;2024-01-10T00:59:09;49.03;;;18.27;;
25946;SDS011;13745;51.470;9.894;2024-01-10T01:01:54;44.35;;;17.02;;
25946;SDS011;13745;51.470;9.894;2024-01-10T01:04:39;50.25;;;18.27;;
25946;SDS011;13745;51.470;9.894;2024-01-10T01:07:25;49.38;;;18.73;;
25946;SDS011;13745;51.470;9.894;2024-01-10T01:10:11;53.67;;;19.38;;
25946;SDS011;13745;51.470;9.894;2024-01-10T01:12:56;50.40;;;17.83;;
25946;SDS011;13745;51.470;9.894;2024-01-10T01:15:42;47.88;;;18.17;;
25946;SDS011;13745;51.470;9.894;2024-01-10T01:18:28;51.50;;;19.75;;
25946;SDS011;13745;51.470;9.894;2024-01-10T01:21:12;52.70;;;18.85;;
25946;SDS011;13745;51.470;9.894;2024-01-10T01:23:58;45.72;;;17.83;;
25946;SDS011;13745;51.470;9.894;2024-01-10T01:26:43;47.72;;;19.00;;
25946;SDS011;13745;51.470;9.894;2024-01-10T01:29:28;49.97;;;19.45;;
25946;SDS011;13745;51.470;9.894;2024-01-10T01:32:15;59.15;;;18.85;;
25946;SDS011;13745;51.470;9.894;2024-01-10T01:35:00;57.10;;;18.98;;
25946;SDS011;13745;51.470;9.894;2024-01-10T01:37:46;54.85;;;19.52;;
25946;SDS011;13745;51.470;9.894;2024-01-10T01:40:31;55.88;;;20.55;;
25946;SDS011;13745;51.470;9.894;2024-01-10T01:43:19;50.78;;;19.30;;
25946;SDS011;13745;51.470;9.894;2024-01-10T01:46:06;54.15;;;20.42;;
25946;SDS011;13745;51.470;9.894;2024-01-10T01:48:54;55.30;;;19.15;;
25946;SDS011;13745;51.470;9.894;2024-01-10T01:51:39;47.20;;;18.70;;
25946;SDS011;13745;51.470;9.894;2024-01-10T01:54:25;52.92;;;19.55;;
25946;SDS011;13745;51.470;9.894;2024-01-10T01:57:11;52.25;;;19.58;;
25946;SDS011;13745;51.470;9.894;2024-01-10T01:59:56;57.58;;;20.45;;
25946;SDS011;13745;51.470;9.894;2024-01-10T02:02:42;57.03;;;19.13;;
25946;SDS011;13745;51.470;9.894;2024-01-10T02:05:30;51.80;;;20.05;;
25946;SDS011;13745;51.470;9.894;2024-01-10T02:08:15;51.72;;;20.85;;
25946;SDS011;13745;51.470;9.894;2024-01-10T02:11:00;50.70;;;17.75;;
25946;SDS011;13745;51.470;9.894;2024-01-10T02:13:46;45.47;;;17.85;;
25946;SDS011;13745;51.470;9.894;2024-01-10T02:16:32;44.65;;;17.35;;
25946;SDS011;13745;51.470;9.894;2024-01-10T02:19:18;39.83;;;15.82;;
25946;SDS011;13745;51.470;9.894;2024-01-10T02:22:05;41.95;;;15.75;;
25946;SDS011;13745;51.470;9.894;2024-01-10T02:24:52;39.83;;;15.02;;
25946;SDS011;13745;51.470;9.894;2024-01-10T02:27:39;41.28;;;15.23;;
25946;SDS011;13745;51.470;9.894;2024-01-10T02:30:24;38.85;;;14.52;;
25946;SDS011;13745;51.470;9.894;2024-01-10T02:33:09;32.15;;;14.15;;
25946;SDS011;13745;51.470;9.894;2024-01-10T02:35:55;37.17;;;15.23;;
25946;SDS011;13745;51.470;9.894;2024-01-10T02:38:40;32.13;;;13.38;;
25946;SDS011;13745;51.470;9.894;2024-01-10T02:41:26;39.25;;;15.82;;
25946;SDS011;13745;51.470;9.894;2024-01-10T02:44:12;36.67;;;14.27;;
25946;SDS011;13745;51.470;9.894;2024-01-10T02:46:58;38.40;;;14.07;;
25946;SDS011;13745;51.470;9.894;2024-01-10T02:49:43;33.78;;;14.80;;
25946;SDS011;13745;51.470;9.894;2024-01-10T02:52:28;31.08;;;13.20;;
25946;SDS011;13745;51.470;9.894;2024-01-10T02:55:13;35.55;;;13.82;;
25946;SDS011;13745;51.470;9.894;2024-01-10T02:57:59;37.60;;;15.10;;
25946;SDS011;13745;51.470;9.894;2024-01-10T03:00:45;30.48;;;13.70;;
25946;SDS011;13745;51.470;9.894;2024-01-10T03:03:30;39.10;;;15.10;;
25946;SDS011;13745;51.470;9.894;2024-01-10T03:06:15;34.28;;;14.23;;
25946;SDS011;13745;51.470;9.894;2024-01-10T03:09:00;38.05;;;13.70;;
25946;SDS011;13745;51.470;9.894;2024-01-10T03:11:45;33.35;;;14.25;;
25946;SDS011;13745;51.470;9.894;2024-01-10T03:14:32;37.83;;;14.68;;
25946;SDS011;13745;51.470;9.894;2024-01-10T03:17:17;40.50;;;14.90;;
25946;SDS011;13745;51.470;9.894;2024-01-10T03:20:03;39.85;;;15.40;;
25946;SDS011;13745;51.470;9.894;2024-01-10T03:22:48;37.45;;;14.30;;
25946;SDS011;13745;51.470;9.894;2024-01-10T03:25:33;41.65;;;15.70;;
25946;SDS011;13745;51.470;9.894;2024-01-10T03:28:18;39.03;;;14.63;;
25946;SDS011;13745;51.470;9.894;2024-01-10T03:31:05;44.50;;;15.75;;
25946;SDS011;13745;51.470;9.894;2024-01-10T03:33:50;40.35;;;15.90;;
25946;SDS011;13745;51.470;9.894;2024-01-10T03:36:35;41.97;;;15.32;;
25946;SDS011;13745;51.470;9.894;2024-01-10T03:39:20;41.80;;;15.27;;
25946;SDS011;13745;51.470;9.894;2024-01-10T03:42:05;42.97;;;16.58;;
25946;SDS011;13745;51.470;9.894;2024-01-10T03:44:50;45.45;;;16.77;;
25946;SDS011;13745;51.470;9.894;2024-01-10T03:47:37;42.30;;;16.83;;
25946;SDS011;13745;51.470;9.894;2024-01-10T03:50:22;49.88;;;18.30;;
25946;SDS011;13745;51.470;9.894;2024-01-10T03:53:07;45.22;;;17.27;;
25946;SDS011;13745;51.470;9.894;2024-01-10T03:55:52;46.47;;;17.10;;
25946;SDS011;13745;51.470;9.894;2024-01-10T03:58:37;42.50;;;16.55;;
25946;SDS011;13745;51.470;9.894;2024-01-10T04:01:23;46.45;;;15.88;;
25946;SDS011;13745;51.470;9.894;2024-01-10T04:04:13;50.35;;;18.65;;
25946;SDS011;13745;51.470;9.894;2024-01-10T04:06:58;48.25;;;17.65;;
25946;SDS011;13745;51.470;9.894;2024-01-10T04:09:43;44.50;;;16.40;;
25946;SDS011;13745;51.470;9.894;2024-01-10T04:12:28;45.08;;;17.67;;
25946;SDS011;13745;51.470;9.894;2024-01-10T04:15:13;41.15;;;16.80;;
25946;SDS011;13745;51.470;9.894;2024-01-10T04:17:58;46.60;;;16.63;;
25946;SDS011;13745;51.470;9.894;2024-01-10T04:20:45;46.03;;;17.35;;
25946;SDS011;13745;51.470;9.894;2024-01-10T04:23:30;50.08;;;18.30;;
25946;SDS011;13745;51.470;9.894;2024-01-10T04:26:17;51.72;;;18.92;;
25946;SDS011;13745;51.470;9.894;2024-01-10T04:29:02;49.30;;;17.40;;
25946;SDS011;13745;51.470;9.894;2024-01-10T04:31:47;42.10;;;16.52;;
25946;SDS011;13745;51.470;9.894;2024-01-10T04:34:32;49.10;;;18.90;;
25946;SDS011;13745;51.470;9.894;2024-01-10T04:37:19;45.65;;;16.02;;
25946;SDS011;13745;51.470;9.894;2024-01-10T04:40:05;44.65;;;16.90;;
25946;SDS011;13745;51.470;9.894;2024-01-10T04:42:51;44.25;;;16.67;;
25946;SDS011;13745;51.470;9.894;2024-01-10T04:45:36;48.08;;;18.33;;
25946;SDS011;13745;51.470;9.894;2024-01-10T04:48:21;43.83;;;16.92;;
25946;SDS011;13745;51.470;9.894;2024-01-10T04:51:06;38.25;;;17.20;;
25946;SDS011;13745;51.470;9.894;2024-01-10T04:53:52;44.80;;;16.75;;
25946;SDS011;13745;51.470;9.894;2024-01-10T04:56:37;44.15;;;17.33;;
25946;SDS011;13745;51.470;9.894;2024-01-10T04:59:22;47.50;;;17.40;;
25946;SDS011;13745;51.470;9.894;2024-01-10T05:02:08;48.38;;;18.10;;
25946;SDS011;13745;51.470;9.894;2024-01-10T05:04:54;47.85;;;18.02;;
25946;SDS011;13745;51.470;9.894;2024-01-10T05:07:39;54.42;;;17.33;;
25946;SDS011;13745;51.470;9.894;2024-01-10T05:10:25;50.85;;;18.95;;
25946;SDS011;13745;51.470;9.894;2024-01-10T05:13:11;50.72;;;19.10;;
25946;SDS011;13745;51.470;9.894;2024-01-10T05:15:56;43.80;;;18.70;;
25946;SDS011;13745;51.470;9.894;2024-01-10T05:18:42;46.50;;;16.90;;
25946;SDS011;13745;51.470;9.894;2024-01-10T05:21:27;52.97;;;18.38;;
25946;SDS011;13745;51.470;9.894;2024-01-10T05:24:14;46.70;;;16.75;;
25946;SDS011;13745;51.470;9.894;2024-01-10T05:27:00;53.42;;;18.27;;
25946;SDS011;13745;51.470;9.894;2024-01-10T05:29:45;46.20;;;18.23;;
25946;SDS011;13745;51.470;9.894;2024-01-10T05:32:31;46.03;;;18.30;;
25946;SDS011;13745;51.470;9.894;2024-01-10T05:35:16;43.25;;;18.35;;
25946;SDS011;13745;51.470;9.894;2024-01-10T05:38:01;50.75;;;18.13;;
25946;SDS011;13745;51.470;9.894;2024-01-10T05:40:47;47.35;;;18.70;;
25946;SDS011;13745;51.470;9.894;2024-01-10T05:43:34;50.42;;;18.40;;
25946;SDS011;13745;51.470;9.894;2024-01-10T05:46:19;50.97;;;18.55;;
25946;SDS011;13745;51.470;9.894;2024-01-10T05:49:04;47.58;;;17.48;;
25946;SDS011;13745;51.470;9.894;2024-01-10T05:51:49;51.17;;;17.55;;
25946;SDS011;13745;51.470;9.894;2024-01-10T05:54:34;51.55;;;17.90;;
25946;SDS011;13745;51.470;9.894;2024-01-10T05:57:19;48.72;;;18.90;;
25946;SDS011;13745;51.470;9.894;2024-01-10T06:00:07;45.63;;;17.17;;
25946;SDS011;13745;51.470;9.894;2024-01-10T06:02:53;49.55;;;18.67;;
25946;SDS011;13745;51.470;9.894;2024-01-10T06:05:38;50.72;;;18.52;;
25946;SDS011;13745;51.470;9.894;2024-01-10T06:08:23;53.72;;;19.85;;
25946;SDS011;13745;51.470;9.894;2024-01-10T06:11:09;49.03;;;16.98;;
25946;SDS011;13745;51.470;9.894;2024-01-10T06:13:55;48.15;;;18.25;;
25946;SDS011;13745;51.470;9.894;2024-01-10T06:16:43;51.42;;;19.35;;
25946;SDS011;13745;51.470;9.894;2024-01-10T06:19:28;46.92;;;18.50;;
25946;SDS011;13745;51.470;9.894;2024-01-10T06:22:13;48.33;;;17.92;;
25946;SDS011;13745;51.470;9.894;2024-01-10T06:24:58;42.60;;;17.80;;
25946;SDS011;13745;51.470;9.894;2024-01-10T06:27:44;44.85;;;17.60;;
25946;SDS011;13745;51.470;9.894;2024-01-10T06:30:29;46.92;;;17.45;;
25946;SDS011;13745;51.470;9.894;2024-01-10T06:33:16;43.55;;;18.23;;
25946;SDS011;13745;51.470;9.894;2024-01-10T06:36:01;43.10;;;17.90;;
25946;SDS011;13745;51.470;9.894;2024-01-10T06:38:46;40.97;;;16.58;;
25946;SDS011;13745;51.470;9.894;2024-01-10T06:41:31;41.00;;;15.70;;
25946;SDS011;13745;51.470;9.894;2024-01-10T06:44:16;46.22;;;16.40;;
25946;SDS011;13745;51.470;9.894;2024-01-10T06:47:02;44.58;;;17.58;;
25946;SDS011;13745;51.470;9.894;2024-01-10T06:49:49;42.35;;;16.33;;
25946;SDS011;13745;51.470;9.894;2024-01-10T06:52:34;46.63;;;16.65;;
25946;SDS011;13745;51.470;9.894;2024-01-10T06:55:19;48.30;;;17.35;;
25946;SDS011;13745;51.470;9.894;2024-01-10T06:58:05;47.67;;;16.52;;
25946;SDS011;13745;51.470;9.894;2024-01-10T07:00:51;46.72;;;17.42;;
25946;SDS011;13745;51.470;9.894;2024-01-10T07:03:36;45.20;;;17.58;;
25946;SDS011;13745;51.470;9.894;2024-01-10T07:06:23;40.60;;;15.55;;
25946;SDS011;13745;51.470;9.894;2024-01-10T07:09:08;42.30;;;16.70;;
25946;SDS011;13745;51.470;9.894;2024-01-10T07:11:53;41.33;;;15.82;;
25946;SDS011;13745;51.470;9.894;2024-01-10T07:14:38;45.00;;;16.42;;
25946;SDS011;13745;51.470;9.894;2024-01-10T07:17:23;50.83;;;17.77;;
25946;SDS011;13745;51.470;9.894;2024-01-10T07:20:09;44.20;;;16.67;;
25946;SDS011;13745;51.470;9.894;2024-01-10T07:22:57;39.85;;;15.48;;
25946;SDS011;13745;51.470;9.894;2024-01-10T07:25:42;44.78;;;17.83;;
25946;SDS011;13745;51.470;9.894;2024-01-10T07:28:27;40.60;;;16.75;;
25946;SDS011;13745;51.470;9.894;2024-01-10T07:31:14;42.25;;;17.45;;
25946;SDS011;13745;51.470;9.894;2024-01-10T07:33:59;46.03;;;17.73;;
25946;SDS011;13745;51.470;9.894;2024-01-10T07:36:44;46.53;;;18.38;;
25946;SDS011;13745;51.470;9.894;2024-01-10T07:39:31;46.65;;;18.00;;
25946;SDS011;13745;51.470;9.894;2024-01-10T07:42:16;44.15;;;19.42;;
25946;SDS011;13745;51.470;9.894;2024-01-10T07:45:02;42.35;;;16.83;;
25946;SDS011;13745;51.470;9.894;2024-01-10T07:47:48;41.72;;;17.65;;
25946;SDS011;13745;51.470;9.894;2024-01-10T07:50:33;44.33;;;18.05;;
25946;SDS011;13745;51.470;9.894;2024-01-10T07:53:18;49.03;;;18.88;;
25946;SDS011;13745;51.470;9.894;2024-01-10T07:56:05;46.83;;;18.00;;
25946;SDS011;13745;51.470;9.894;2024-01-10T07:58:50;42.85;;;17.27;;
25946;SDS011;13745;51.470;9.894;2024-01-10T08:01:35;45.03;;;17.58;;
25946;SDS011;13745;51.470;9.894;2024-01-10T08:04:20;43.85;;;17.10;;
25946;SDS011;13745;51.470;9.894;2024-01-10T08:07:07;43.25;;;17.30;;
25946;SDS011;13745;51.470;9.894;2024-01-10T08:09:53;40.33;;;16.60;;
25946;SDS011;13745;51.470;9.894;2024-01-10T08:12:39;37.78;;;15.55;;
25946;SDS011;13745;51.470;9.894;2024-01-10T08:15:24;46.40;;;17.80;;
25946;SDS011;13745;51.470;9.894;2024-01-10T08:18:10;44.63;;;18.33;;
25946;SDS011;13745;51.470;9.894;2024-01-10T08:20:55;44.08;;;18.08;;
25946;SDS011;13745;51.470;9.894;2024-01-10T08:23:40;42.97;;;18.75;;
25946;SDS011;13745;51.470;9.894;2024-01-10T08:26:25;46.50;;;17.50;;
25946;SDS011;13745;51.470;9.894;2024-01-10T08:29:13;40.70;;;17.30;;
25946;SDS011;13745;51.470;9.894;2024-01-10T08:31:59;42.30;;;17.75;;
25946;SDS011;13745;51.470;9.894;2024-01-10T08:34:44;46.15;;;18.70;;
25946;SDS011;13745;51.470;9.894;2024-01-10T08:37:29;51.05;;;17.63;;
25946;SDS011;13745;51.470;9.894;2024-01-10T08:40:15;44.42;;;19.08;;
25946;SDS011;13745;51.470;9.894;2024-01-10T08:43:00;45.72;;;18.77;;
25946;SDS011;13745;51.470;9.894;2024-01-10T08:45:47;47.55;;;19.25;;
25946;SDS011;13745;51.470;9.894;2024-01-10T08:48:32;44.85;;;19.02;;
25946;SDS011;13745;51.470;9.894;2024-01-10T08:51:18;57.50;;;22.58;;
25946;SDS011;13745;51.470;9.894;2024-01-10T08:54:03;53.05;;;20.65;;
25946;SDS011;13745;51.470;9.894;2024-01-10T08:56:48;52.83;;;20.10;;
25946;SDS011;13745;51.470;9.894;2024-01-10T08:59:33;56.65;;;22.27;;
25946;SDS011;13745;51.470;9.894;2024-01-10T09:02:20;79.80;;;25.38;;
25946;SDS011;13745;51.470;9.894;2024-01-10T09:05:06;92.22;;;28.42;;
25946;SDS011;13745;51.470;9.894;2024-01-10T09:07:53;89.45;;;29.75;;
25946;SDS011;13745;51.470;9.894;2024-01-10T09:10:38;80.53;;;28.52;;
25946;SDS011;13745;51.470;9.894;2024-01-10T09:13:23;77.68;;;25.50;;
25946;SDS011;13745;51.470;9.894;2024-01-10T09:16:08;68.57;;;26.05;;
25946;SDS011;13745;51.470;9.894;2024-01-10T09:18:56;59.17;;;22.42;;
25946;SDS011;13745;51.470;9.894;2024-01-10T09:21:42;57.05;;;22.88;;
25946;SDS011;13745;51.470;9.894;2024-01-10T09:24:27;56.42;;;21.98;;
25946;SDS011;13745;51.470;9.894;2024-01-10T09:27:13;56.60;;;21.58;;
25946;SDS011;13745;51.470;9.894;2024-01-10T09:29:58;62.15;;;23.00;;
25946;SDS011;13745;51.470;9.894;2024-01-10T09:32:43;53.22;;;22.65;;
25946;SDS011;13745;51.470;9.894;2024-01-10T09:35:30;62.40;;;23.77;;
25946;SDS011;13745;51.470;9.894;2024-01-10T09:38:15;56.25;;;24.13;;
25946;SDS011;13745;51.470;9.894;2024-01-10T09:41:00;59.55;;;23.85;;
25946;SDS011;13745;51.470;9.894;2024-01-10T09:43:48;62.63;;;24.60;;
25946;SDS011;13745;51.470;9.894;2024-01-10T09:46:33;57.55;;;24.48;;
25946;SDS011;13745;51.470;9.894;2024-01-10T09:49:22;51.35;;;23.73;;
25946;SDS011;13745;51.470;9.894;2024-01-10T09:52:09;57.22;;;26.00;;
25946;SDS011;13745;51.470;9.894;2024-01-10T09:54:55;56.05;;;24.77;;
25946;SDS011;13745;51.470;9.894;2024-01-10T09:57:42;56.28;;;24.42;;
25946;SDS011;13745;51.470;9.894;2024-01-10T10:00:27;58.75;;;26.73;;
25946;SDS011;13745;51.470;9.894;2024-01-10T10:03:13;58.15;;;26.67;;
25946;SDS011;13745;51.470;9.894;2024-01-10T10:06:00;59.63;;;27.33;;
25946;SDS011;13745;51.470;9.894;2024-01-10T10:08:47;54.13;;;26.33;;
25946;SDS011;13745;51.470;9.894;2024-01-10T10:11:33;52.05;;;26.52;;
25946;SDS011;13745;51.470;9.894;2024-01-10T10:14:18;51.40;;;26.38;;
25946;SDS011;13745;51.470;9.894;2024-01-10T10:17:13;52.80;;;26.13;;
25946;SDS011;13745;51.470;9.894;2024-01-10T10:20:01;48.67;;;26.60;;
25946;SDS011;13745;51.470;9.894;2024-01-10T10:22:57;47.10;;;26.80;;
25946;SDS011;13745;51.470;9.894;2024-01-10T10:25:45;48.65;;;26.77;;
25946;SDS011;13745;51.470;9.894;2024-01-10T10:28:31;43.78;;;26.58;;
25946;SDS011;13745;51.470;9.894;2024-01-10T10:31:17;42.58;;;26.65;;
25946;SDS011;13745;51.470;9.894;2024-01-10T10:34:03;48.30;;;26.15;;
25946;SDS011;13745;51.470;9.894;2024-01-10T10:36:48;43.20;;;27.00;;
25946;SDS011;13745;51.470;9.894;2024-01-10T10:39:34;42.05;;;25.90;;
25946;SDS011;13745;51.470;9.894;2024-01-10T10:42:20;43.35;;;27.55;;
25946;SDS011;13745;51.470;9.894;2024-01-10T10:45:08;41.25;;;26.85;;
25946;SDS011;13745;51.470;9.894;2024-01-10T10:47:58;40.00;;;26.20;;
25946;SDS011;13745;51.470;9.894;2024-01-10T10:50:46;39.95;;;27.10;;
25946;SDS011;13745;51.470;9.894;2024-01-10T10:53:39;37.90;;;25.45;;
25946;SDS011;13745;51.470;9.894;2024-01-10T10:56:32;38.38;;;25.90;;
25946;SDS011;13745;51.470;9.894;2024-01-10T10:59:19;36.28;;;25.85;;
25946;SDS011;13745;51.470;9.894;2024-01-10T11:02:07;37.22;;;24.75;;
25946;SDS011;13745;51.470;9.894;2024-01-10T11:04:54;36.55;;;25.52;;
25946;SDS011;13745;51.470;9.894;2024-01-10T11:07:41;36.50;;;26.13;;
25946;SDS011;13745;51.470;9.894;2024-01-10T11:10:29;36.65;;;25.67;;
25946;SDS011;13745;51.470;9.894;2024-01-10T11:13:26;42.15;;;28.77;;
25946;SDS011;13745;51.470;9.894;2024-01-10T11:23:04;38.05;;;26.90;;
25946;SDS011;13745;51.470;9.894;2024-01-10T11:26:01;37.88;;;27.52;;
25946;SDS011;13745;51.470;9.894;2024-01-10T11:28:47;35.78;;;26.52;;
25946;SDS011;13745;51.470;9.894;2024-01-10T11:31:33;37.05;;;26.02;;
25946;SDS011;13745;51.470;9.894;2024-01-10T11:34:22;38.05;;;27.05;;
25946;SDS011;13745;51.470;9.894;2024-01-10T11:37:10;36.67;;;25.65;;
25946;SDS011;13745;51.470;9.894;2024-01-10T11:39:56;36.10;;;25.52;;
25946;SDS011;13745;51.470;9.894;2024-01-10T11:42:42;38.80;;;25.85;;
25946;SDS011;13745;51.470;9.894;2024-01-10T11:45:37;33.72;;;25.33;;
25946;SDS011;13745;51.470;9.894;2024-01-10T11:48:26;36.60;;;27.60;;
25946;SDS011;13745;51.470;9.894;2024-01-10T11:51:12;39.33;;;28.15;;
25946;SDS011;13745;51.470;9.894;2024-01-10T11:53:59;38.95;;;26.77;;
25946;SDS011;13745;51.470;9.894;2024-01-10T11:56:45;38.13;;;27.05;;
25946;SDS011;13745;51.470;9.894;2024-01-10T11:59:30;38.25;;;26.60;;
25946;SDS011;13745;51.470;9.894;2024-01-10T12:02:16;39.05;;;28.10;;
25946;SDS011;13745;51.470;9.894;2024-01-10T12:05:01;39.15;;;26.42;;
25946;SDS011;13745;51.470;9.894;2024-01-10T12:07:50;41.35;;;27.85;;
25946;SDS011;13745;51.470;9.894;2024-01-10T12:10:37;41.03;;;26.08;;
25946;SDS011;13745;51.470;9.894;2024-01-10T12:13:23;39.05;;;26.83;;
25946;SDS011;13745;51.470;9.894;2024-01-10T12:16:09;38.53;;;25.95;;
25946;SDS011;13745;51.470;9.894;2024-01-10T12:18:55;38.85;;;26.20;;
25946;SDS011;13745;51.470;9.894;2024-01-10T12:21:40;43.35;;;28.27;;
25946;SDS011;13745;51.470;9.894;2024-01-10T12:24:26;38.78;;;26.15;;
25946;SDS011;13745;51.470;9.894;2024-01-10T12:27:13;36.90;;;24.60;;
25946;SDS011;13745;51.470;9.894;2024-01-10T12:30:01;39.22;;;25.23;;
25946;SDS011;13745;51.470;9.894;2024-01-10T12:32:50;35.25;;;23.88;;
25946;SDS011;13745;51.470;9.894;2024-01-10T12:35:35;39.65;;;25.08;;
25946;SDS011;13745;51.470;9.894;2024-01-10T12:38:21;39.47;;;25.02;;
25946;SDS011;13745;51.470;9.894;2024-01-10T12:41:06;38.22;;;25.02;;
25946;SDS011;13745;51.470;9.894;2024-01-10T12:43:54;36.55;;;24.80;;
25946;SDS011;13745;51.470;9.894;2024-01-10T12:46:49;39.58;;;25.65;;
25946;SDS011;13745;51.470;9.894;2024-01-10T12:49:36;38.33;;;24.63;;
25946;SDS011;13745;51.470;9.894;2024-01-10T12:52:21;45.22;;;28.20;;
25946;SDS011;13745;51.470;9.894;2024-01-10T12:55:09;41.13;;;26.23;;
25946;SDS011;13745;51.470;9.894;2024-01-10T12:57:54;42.67;;;27.60;;
25946;SDS011;13745;51.470;9.894;2024-01-10T13:00:47;40.78;;;24.98;;
25946;SDS011;13745;51.470;9.894;2024-01-10T13:03:33;43.08;;;25.23;;
25946;SDS011;13745;51.470;9.894;2024-01-10T13:06:19;39.72;;;25.48;;
25946;SDS011;13745;51.470;9.894;2024-01-10T13:09:06;37.15;;;24.38;;
25946;SDS011;13745;51.470;9.894;2024-01-10T13:11:51;39.63;;;24.50;;
25946;SDS011;13745;51.470;9.894;2024-01-10T13:14:36;39.53;;;24.35;;
25946;SDS011;13745;51.470;9.894;2024-01-10T13:17:22;40.20;;;25.95;;
25946;SDS011;13745;51.470;9.894;2024-01-10T13:20:08;41.10;;;24.33;;
25946;SDS011;13745;51.470;9.894;2024-01-10T13:22:54;39.03;;;24.70;;
25946;SDS011;13745;51.470;9.894;2024-01-10T13:25:40;37.22;;;24.23;;
25946;SDS011;13745;51.470;9.894;2024-01-10T13:28:25;38.92;;;25.85;;
25946;SDS011;13745;51.470;9.894;2024-01-10T13:31:11;41.03;;;25.60;;
25946;SDS011;13745;51.470;9.894;2024-01-10T13:33:58;41.85;;;26.55;;
25946;SDS011;13745;51.470;9.894;2024-01-10T13:36:43;36.97;;;24.65;;
25946;SDS011;13745;51.470;9.894;2024-01-10T13:39:28;47.10;;;28.98;;
25946;SDS011;13745;51.470;9.894;2024-01-10T13:42:13;47.50;;;28.75;;
25946;SDS011;13745;51.470;9.894;2024-01-10T13:44:59;67.32;;;37.65;;
25946;SDS011;13745;51.470;9.894;2024-01-10T13:47:44;65.63;;;33.75;;
25946;SDS011;13745;51.470;9.894;2024-01-10T13:50:30;66.18;;;35.92;;
25946;SDS011;13745;51.470;9.894;2024-01-10T13:53:16;56.88;;;31.92;;
25946;SDS011;13745;51.470;9.894;2024-01-10T13:56:02;43.22;;;26.30;;
25946;SDS011;13745;51.470;9.894;2024-01-10T13:58:47;41.05;;;24.65;;
25946;SDS011;13745;51.470;9.894;2024-01-10T14:01:32;37.70;;;23.73;;
25946;SDS011;13745;51.470;9.894;2024-01-10T14:04:18;42.45;;;22.70;;
25946;SDS011;13745;51.470;9.894;2024-01-10T14:07:04;42.95;;;23.55;;
25946;SDS011;13745;51.470;9.894;2024-01-10T14:09:49;41.10;;;23.95;;
25946;SDS011;13745;51.470;9.894;2024-01-10T14:12:36;44.38;;;22.98;;
25946;SDS011;13745;51.470;9.894;2024-01-10T14:15:21;40.67;;;22.45;;
25946;SDS011;13745;51.470;9.894;2024-01-10T14:18:06;45.45;;;21.83;;
25946;SDS011;13745;51.470;9.894;2024-01-10T14:20:51;47.33;;;23.88;;
25946;SDS011;13745;51.470;9.894;2024-01-10T14:23:38;43.65;;;22.48;;
25946;SDS011;13745;51.470;9.894;2024-01-10T14:26:23;44.80;;;22.45;;
25946;SDS011;13745;51.470;9.894;2024-01-10T14:29:10;40.40;;;22.88;;
25946;SDS011;13745;51.470;9.894;2024-01-10T14:31:54;46.15;;;22.40;;
25946;SDS011;13745;51.470;9.894;2024-01-10T14:34:39;45.22;;;22.63;;
25946;SDS011;13745;51.470;9.894;2024-01-10T14:37:25;45.85;;;22.42;;
25946;SDS011;13745;51.470;9.894;2024-01-10T14:40:12;45.97;;;23.45;;
25946;SDS011;13745;51.470;9.894;2024-01-10T14:42:57;44.50;;;22.45;;
25946;SDS011;13745;51.470;9.894;2024-01-10T14:45:42;42.65;;;22.52;;
25946;SDS011;13745;51.470;9.894;2024-01-10T14:48:27;59.55;;;22.98;;
25946;SDS011;13745;51.470;9.894;2024-01-10T14:51:12;45.13;;;24.83;;
25946;SDS011;13745;51.470;9.894;2024-01-10T14:53:57;51.65;;;23.98;;
25946;SDS011;13745;51.470;9.894;2024-01-10T14:56:44;53.60;;;25.35;;
25946;SDS011;13745;51.470;9.894;2024-01-10T14:59:29;54.00;;;25.10;;
25946;SDS011;13745;51.470;9.894;2024-01-10T15:02:14;50.90;;;23.52;;
25946;SDS011;13745;51.470;9.894;2024-01-10T15:05:02;44.75;;;22.10;;
25946;SDS011;13745;51.470;9.894;2024-01-10T15:07:48;46.78;;;22.80;;
25946;SDS011;13745;51.470;9.894;2024-01-10T15:10:33;50.30;;;23.42;;
25946;SDS011;13745;51.470;9.894;2024-01-10T15:13:20;62.90;;;30.00;;
25946;SDS011;13745;51.470;9.894;2024-01-10T15:16:05;56.90;;;27.30;;
25946;SDS011;13745;51.470;9.894;2024-01-10T15:18:50;53.30;;;25.02;;
25946;SDS011;13745;51.470;9.894;2024-01-10T15:21:35;50.53;;;23.50;;
25946;SDS011;13745;51.470;9.894;2024-01-10T15:24:21;53.42;;;23.83;;
25946;SDS011;13745;51.470;9.894;2024-01-10T15:27:06;49.97;;;23.05;;
25946;SDS011;13745;51.470;9.894;2024-01-10T15:29:54;55.10;;;23.70;;
25946;SDS011;13745;51.470;9.894;2024-01-10T15:32:39;52.15;;;22.67;;
25946;SDS011;13745;51.470;9.894;2024-01-10T15:35:24;52.47;;;24.20;;
25946;SDS011;13745;51.470;9.894;2024-01-10T15:38:10;55.60;;;25.73;;
25946;SDS011;13745;51.470;9.894;2024-01-10T15:40:55;58.63;;;26.73;;
25946;SDS011;13745;51.470;9.894;2024-01-10T15:43:44;53.58;;;25.67;;
25946;SDS011;13745;51.470;9.894;2024-01-10T15:46:30;59.28;;;25.40;;
25946;SDS011;13745;51.470;9.894;2024-01-10T15:49:16;58.40;;;23.42;;
25946;SDS011;13745;51.470;9.894;2024-01-10T15:52:01;56.55;;;24.45;;
25946;SDS011;13745;51.470;9.894;2024-01-10T15:54:46;54.55;;;23.95;;
25946;SDS011;13745;51.470;9.894;2024-01-10T15:57:36;57.22;;;25.95;;
25946;SDS011;13745;51.470;9.894;2024-01-10T16:00:22;59.03;;;25.10;;
25946;SDS011;13745;51.470;9.894;2024-01-10T16:03:09;55.35;;;25.48;;
25946;SDS011;13745;51.470;9.894;2024-01-10T16:05:54;53.00;;;25.33;;
25946;SDS011;13745;51.470;9.894;2024-01-10T16:08:40;57.38;;;24.85;;
25946;SDS011;13745;51.470;9.894;2024-01-10T16:11:25;60.33;;;26.88;;
25946;SDS011;13745;51.470;9.894;2024-01-10T16:14:10;74.63;;;30.85;;
25946;SDS011;13745;51.470;9.894;2024-01-10T16:16:55;75.95;;;29.85;;